Time;durP1;ratioP1;P1;durP2;ratioP2;P2;SDS_P1;SDS_P2;PMS_P1;PMS_P2;Temp;Humidity;BMP_temperature;BMP_pressure;BME280_temperature;BME280_humidity;BME280_pressure;Samples;Min_cycle;Max_cycle;Signal;HPM_P1;HPM_P2
2021/05/19 00:01:55;;;;;;;8.25;4.55;;;;;;;12.68;59.06;101474.22;4956357;28;20043;-54
2021/05/19 00:04:43;;;;;;;8.60;4.47;;;;;;;12.68;58.79;101474.22;4955980;28;20059;-56
2021/05/19 00:07:15;;;;;;;11.15;4.50;;;;;;;12.69;58.73;101475.84;4954190;28;20058;-56
2021/05/19 00:09:49;;;;;;;9.30;3.75;;;;;;;12.65;58.64;101469.28;4945620;29;20102;-54
2021/05/19 00:12:29;;;;;;;7.38;4.00;;;;;;;12.64;58.59;101472.28;4954145;28;20162;-56
2021/05/19 00:15:06;;;;;;;7.50;3.90;;;;;;;12.62;58.69;101464.34;4970566;28;20054;-55
2021/05/19 00:17:53;;;;;;;8.82;4.63;;;;;;;12.64;58.98;101462.16;4956980;28;20062;-54
2021/05/19 00:20:21;;;;;;;8.60;4.50;;;;;;;12.65;59.59;101462.97;4955941;28;20603;-56
2021/05/19 00:22:49;;;;;;;6.78;4.18;;;;;;;12.64;59.05;101462.16;4956013;28;20051;-55
2021/05/19 00:25:17;;;;;;;9.32;4.65;;;;;;;12.65;59.68;101463.81;4955693;28;20568;-53
2021/05/19 00:27:45;;;;;;;9.02;4.35;;;;;;;12.63;59.32;101457.78;4955139;28;20047;-57
2021/05/19 00:30:17;;;;;;;7.75;4.07;;;;;;;12.60;59.13;101461.03;4955665;28;20063;-57
2021/05/19 00:32:45;;;;;;;8.20;4.10;;;;;;;12.58;59.81;101458.59;4956034;28;20054;-54
2021/05/19 00:35:13;;;;;;;9.00;4.15;;;;;;;12.57;59.37;101467.03;4955552;28;20549;-53
2021/05/19 00:37:41;;;;;;;8.20;4.05;;;;;;;12.57;59.40;101461.56;4970487;28;20079;-52
2021/05/19 00:40:10;;;;;;;6.70;3.83;;;;;;;12.54;58.97;101453.91;4954650;28;20046;-55
2021/05/19 00:42:38;;;;;;;7.80;3.55;;;;;;;12.51;59.23;101468.13;4955412;28;20043;-53
2021/05/19 00:45:08;;;;;;;5.95;3.38;;;;;;;12.49;59.29;101459.34;4955183;28;20056;-55
2021/05/19 00:47:37;;;;;;;7.05;3.58;;;;;;;12.47;58.89;101461.53;4970490;28;20047;-51
2021/05/19 00:50:08;;;;;;;5.80;3.55;;;;;;;12.44;59.07;101456.59;4953956;29;20090;-54
2021/05/19 00:52:36;;;;;;;5.53;3.65;;;;;;;12.41;59.24;101451.66;4955344;28;20059;-54
2021/05/19 00:55:06;;;;;;;11.02;4.05;;;;;;;12.39;58.84;101464.75;4954712;28;20059;-55
2021/05/19 00:57:36;;;;;;;7.60;3.80;;;;;;;12.35;59.04;101457.09;4970147;28;20048;-56
2021/05/19 01:00:12;;;;;;;6.57;3.53;;;;;;;12.34;59.33;101455.44;4970079;28;20051;-53
2021/05/19 01:03:23;;;;;;;6.85;3.45;;;;;;;12.35;59.44;101448.88;4954928;28;20051;-53
2021/05/19 01:05:58;;;;;;;11.38;4.10;;;;;;;12.33;59.37;101448.31;4969944;28;20081;-55
2021/05/19 01:11:20;;;;;;;5.82;3.42;;;;;;;12.31;59.75;101447.78;4955001;28;20039;-54
2021/05/19 01:13:48;;;;;;;7.50;4.43;;;;;;;12.28;59.12;101442.00;4969472;28;20051;-54
2021/05/19 01:16:16;;;;;;;7.50;3.95;;;;;;;12.26;60.02;101439.53;4954795;28;20050;-54
2021/05/19 01:18:44;;;;;;;6.65;3.70;;;;;;;12.26;60.01;101436.81;4954667;28;20082;-57
2021/05/19 01:21:12;;;;;;;5.13;3.45;;;;;;;12.25;59.89;101437.09;4955006;28;20047;-54
2021/05/19 01:23:41;;;;;;;7.50;3.63;;;;;;;12.24;59.33;101433.53;4954354;28;20039;-56
2021/05/19 01:26:11;;;;;;;6.65;3.70;;;;;;;12.21;59.16;101435.97;4954315;28;20097;-54
2021/05/19 01:28:41;;;;;;;6.15;3.47;;;;;;;12.18;59.23;101437.31;4954423;28;20047;-55
2021/05/19 01:31:12;;;;;;;7.50;3.55;;;;;;;12.14;59.14;101438.91;4953648;29;20043;-54
2021/05/19 01:33:41;;;;;;;5.75;3.47;;;;;;;12.09;59.77;101439.69;4954623;28;20059;-56
2021/05/19 01:36:09;;;;;;;7.47;3.70;;;;;;;12.09;59.78;101431.50;4953036;29;20053;-56
2021/05/19 01:38:37;;;;;;;5.97;3.60;;;;;;;12.10;60.05;101435.09;4954133;28;20055;-57
2021/05/19 01:41:05;;;;;;;7.28;3.40;;;;;;;12.09;59.49;101430.69;4954381;28;20090;-57
2021/05/19 01:43:40;;;;;;;6.20;3.40;;;;;;;12.09;59.40;101431.50;4953457;29;20098;-56
2021/05/19 01:46:17;;;;;;;4.40;2.90;;;;;;;12.09;59.31;101436.97;4954487;28;20051;-55
2021/05/19 01:48:59;;;;;;;5.00;3.25;;;;;;;12.10;60.20;101435.09;4969361;28;20047;-56
2021/05/19 01:51:27;;;;;;;4.78;3.10;;;;;;;12.07;59.79;101436.41;4968961;28;20257;-56
2021/05/19 01:53:55;;;;;;;5.18;2.97;;;;;;;12.04;59.45;101428.75;4953516;28;20106;-55
2021/05/19 01:56:23;;;;;;;6.40;3.40;;;;;;;12.03;59.79;101432.56;4954597;28;20050;-55
2021/05/19 01:58:54;;;;;;;4.95;3.03;;;;;;;12.01;59.58;101431.19;4954137;28;20422;-54
2021/05/19 02:01:22;;;;;;;5.43;3.25;;;;;;;12.01;60.10;101431.19;4969414;28;20491;-56
2021/05/19 02:04:05;;;;;;;5.50;3.20;;;;;;;11.98;60.31;101429.81;4952817;29;20495;-57
2021/05/19 02:06:55;;;;;;;5.35;3.40;;;;;;;11.98;59.57;101426.25;4952705;29;20055;-55
2021/05/19 02:09:28;;;;;;;4.95;3.17;;;;;;;11.95;60.38;101424.84;4968756;28;20102;-54
2021/05/19 02:12:01;;;;;;;5.22;3.17;;;;;;;11.97;60.37;101428.16;4952760;28;20075;-57
2021/05/19 02:14:33;;;;;;;4.47;3.20;;;;;;;11.96;60.06;101425.72;4952762;29;20043;-56
2021/05/19 02:17:04;;;;;;;6.75;3.38;;;;;;;11.95;60.59;101430.31;4952675;29;20053;-57
2021/05/19 02:19:36;;;;;;;6.47;3.47;;;;;;;11.95;60.49;101430.31;4952709;29;20047;-55
2021/05/19 02:22:09;;;;;;;6.22;3.75;;;;;;;11.93;60.18;101427.06;4936495;29;20065;-57
2021/05/19 02:24:49;;;;;;;7.50;3.92;;;;;;;11.90;60.66;101430.28;4968751;28;20043;-57
2021/05/19 02:27:16;;;;;;;6.63;3.70;;;;;;;11.85;60.06;101431.03;4953796;28;20047;-56
2021/05/19 02:29:53;;;;;;;7.95;3.78;;;;;;;11.82;60.66;101431.56;4954057;28;20137;-55
2021/05/19 02:32:22;;;;;;;7.07;3.70;;;;;;;11.78;60.87;101427.72;4972161;28;20047;-55
2021/05/19 02:34:50;;;;;;;5.05;3.20;;;;;;;11.78;60.33;101429.63;4972644;28;20035;-56
2021/05/19 02:37:19;;;;;;;5.82;3.30;;;;;;;11.76;60.95;101429.91;4972622;28;20590;-53
2021/05/19 02:39:47;;;;;;;5.10;3.75;;;;;;;11.77;60.59;101434.25;4957671;28;20063;-56
2021/05/19 02:42:15;;;;;;;4.80;3.25;;;;;;;11.76;61.24;101435.34;4972709;28;20082;-56
2021/05/19 02:44:43;;;;;;;6.47;3.60;;;;;;;11.77;61.04;101426.06;4972641;28;20071;-56
2021/05/19 02:47:10;;;;;;;5.60;3.42;;;;;;;11.75;61.41;101422.78;4957966;28;20055;-56
2021/05/19 02:49:38;;;;;;;6.68;3.20;;;;;;;11.72;61.22;101420.56;4957407;28;20047;-54
2021/05/19 02:52:06;;;;;;;5.68;3.60;;;;;;;11.73;60.88;101419.47;4956991;28;20039;-56
2021/05/19 02:54:34;;;;;;;7.13;3.58;;;;;;;11.74;61.28;101426.59;4957343;28;20059;-56
2021/05/19 02:57:01;;;;;;;6.18;3.47;;;;;;;11.75;60.89;101420.03;4957276;28;20051;-53
2021/05/19 02:59:29;;;;;;;5.80;3.35;;;;;;;11.76;61.40;101424.44;4957536;28;20450;-57
2021/05/19 03:01:57;;;;;;;5.20;3.40;;;;;;;11.73;62.03;101430.41;4957458;28;20046;-56
2021/05/19 03:04:24;;;;;;;7.28;3.55;;;;;;;11.72;62.16;101428.75;4957216;28;20051;-55
2021/05/19 03:06:52;;;;;;;7.68;3.45;;;;;;;11.71;61.49;101427.94;4956799;28;20137;-57
2021/05/19 03:09:20;;;;;;;5.32;3.50;;;;;;;11.74;61.57;101429.34;4956963;28;20043;-56
2021/05/19 03:11:48;;;;;;;6.75;3.60;;;;;;;11.72;62.18;101428.75;4957083;28;20047;-54
2021/05/19 03:14:16;;;;;;;5.80;3.45;;;;;;;11.74;61.59;101429.34;4957238;28;20075;-54
2021/05/19 03:16:44;;;;;;;5.88;3.30;;;;;;;11.74;61.90;101426.59;4957333;28;20498;-55
2021/05/19 03:19:12;;;;;;;5.85;3.28;;;;;;;11.73;62.15;101435.84;4956638;28;20097;-54
2021/05/19 03:21:40;;;;;;;6.20;3.38;;;;;;;11.71;62.00;101432.56;4971780;28;20051;-56
2021/05/19 03:24:08;;;;;;;7.55;3.97;;;;;;;11.70;61.92;101425.47;4956867;28;20043;-56
2021/05/19 03:26:37;;;;;;;6.00;3.60;;;;;;;11.68;62.34;101433.09;4957085;28;20062;-57
2021/05/19 03:29:05;;;;;;;6.55;3.58;;;;;;;11.67;62.34;101434.19;4957043;28;20154;-57
2021/05/19 03:31:34;;;;;;;5.70;3.40;;;;;;;11.63;62.40;101431.13;4956966;28;20502;-56
2021/05/19 03:34:02;;;;;;;8.23;3.30;;;;;;;11.59;63.36;101434.66;4956248;28;20118;-57
2021/05/19 03:36:33;;;;;;;5.72;3.53;;;;;;;11.58;62.63;101439.28;4971463;28;20051;-55
2021/05/19 03:39:01;;;;;;;6.55;3.70;;;;;;;11.57;63.48;101440.38;4956795;28;20047;-55
2021/05/19 03:41:29;;;;;;;6.32;3.67;;;;;;;11.59;63.32;101445.56;4956090;28;20039;-55
2021/05/19 03:43:57;;;;;;;5.68;3.50;;;;;;;11.60;63.19;101436.31;4955526;28;20058;-57
2021/05/19 03:46:24;;;;;;;8.50;3.53;;;;;;;11.56;62.96;101441.44;4956782;28;20047;-57
2021/05/19 03:48:54;;;;;;;6.05;3.63;;;;;;;11.58;63.19;101435.75;4955991;28;20043;-56
2021/05/19 03:51:22;;;;;;;8.73;3.70;;;;;;;11.57;63.67;101432.19;4956446;28;20048;-56
2021/05/19 03:53:50;;;;;;;6.45;3.47;;;;;;;11.54;63.75;101427.22;4971300;28;20090;-56
2021/05/19 03:56:18;;;;;;;6.68;3.47;;;;;;;11.54;64.09;101426.41;4956468;28;20122;-57
2021/05/19 03:58:46;;;;;;;6.90;3.70;;;;;;;11.55;63.56;101434.34;4956539;28;20043;-57
2021/05/19 04:01:14;;;;;;;8.95;3.63;;;;;;;11.56;63.72;101440.63;4956991;28;20380;-57
2021/05/19 04:03:42;;;;;;;7.68;3.85;;;;;;;11.51;63.83;101434.03;4955884;28;20100;-57
2021/05/19 04:06:09;;;;;;;6.20;3.35;;;;;;;11.51;64.22;101434.03;4956500;28;20047;-56
2021/05/19 04:08:42;;;;;;;7.63;3.70;;;;;;;11.50;64.36;101437.84;4956057;28;20047;-57
2021/05/19 04:11:11;;;;;;;10.52;3.80;;;;;;;11.49;64.48;101435.38;4955991;28;20059;-57
2021/05/19 04:13:39;;;;;;;7.20;3.65;;;;;;;11.54;64.25;101440.06;4955910;28;20514;-58
2021/05/19 04:16:07;;;;;;;9.85;3.60;;;;;;;11.56;63.79;101437.91;4970782;28;20139;-58
2021/05/19 04:18:35;;;;;;;9.73;3.95;;;;;;;11.57;63.93;101436.81;4970140;28;20062;-59
2021/05/19 04:21:05;;;;;;;8.90;3.78;;;;;;;11.56;64.49;101440.63;4956053;28;20419;-56
2021/05/19 04:23:34;;;;;;;9.45;3.60;;;;;;;11.54;64.74;101440.88;4956079;28;20061;-57
2021/05/19 04:26:04;;;;;;;8.10;3.22;;;;;;;11.57;64.47;101431.34;4955792;28;20046;-56
2021/05/19 04:28:32;;;;;;;7.82;3.58;;;;;;;11.56;64.77;101435.16;4954173;28;20065;-55
2021/05/19 04:31:05;;;;;;;8.85;3.60;;;;;;;11.58;64.72;101436.56;4954398;29;20047;-57
2021/05/19 04:33:33;;;;;;;8.63;3.75;;;;;;;11.56;64.67;101435.16;4955525;28;20122;-56
2021/05/19 04:36:08;;;;;;;8.73;3.72;;;;;;;11.55;64.23;101439.81;4955324;28;20529;-57
2021/05/19 04:38:36;;;;;;;7.53;3.47;;;;;;;11.55;64.42;101441.72;4955814;28;20043;-58
2021/05/19 04:41:06;;;;;;;7.80;3.75;;;;;;;11.56;64.57;101446.09;4955482;28;20506;-58
2021/05/19 04:43:34;;;;;;;10.98;3.88;;;;;;;11.54;64.99;101446.34;4942185;29;20043;-59
2021/05/19 04:46:05;;;;;;;10.38;3.92;;;;;;;11.55;64.83;101449.91;4955111;28;20078;-56
2021/05/19 04:48:32;;;;;;;8.05;4.00;;;;;;;11.55;64.89;101450.72;4955258;28;20138;-55
2021/05/19 04:51:02;;;;;;;9.52;3.95;;;;;;;11.54;65.10;101450.97;4955561;28;20042;-54
2021/05/19 04:53:30;;;;;;;7.93;3.63;;;;;;;11.55;65.24;101450.72;4954806;28;20118;-57
2021/05/19 04:55:57;;;;;;;9.57;3.83;;;;;;;11.56;65.10;101443.34;4955101;28;20162;-58
2021/05/19 04:58:26;;;;;;;9.13;3.50;;;;;;;11.58;65.34;101443.94;4954917;28;20047;-56
2021/05/19 05:00:55;;;;;;;11.45;4.43;;;;;;;11.60;64.92;101444.50;4954703;28;20039;-57
2021/05/19 05:03:23;;;;;;;9.57;4.13;;;;;;;11.58;64.73;101441.19;4954816;28;20039;-55
2021/05/19 05:05:51;;;;;;;6.82;3.58;;;;;;;11.59;64.75;101451.84;4955073;28;20043;-55
2021/05/19 05:08:19;;;;;;;9.02;3.60;;;;;;;11.59;64.96;101445.56;4955181;28;20055;-56
2021/05/19 05:10:46;;;;;;;8.48;3.90;;;;;;;11.59;65.12;101454.56;4954906;28;20446;-55
2021/05/19 05:13:14;;;;;;;9.55;4.00;;;;;;;11.60;65.31;101453.50;4954706;28;20383;-54
2021/05/19 05:15:42;;;;;;;9.10;3.58;;;;;;;11.60;64.92;101456.22;4954518;28;20486;-56
2021/05/19 05:18:10;;;;;;;7.38;3.38;;;;;;;11.62;65.37;101455.97;4954891;28;20398;-55
2021/05/19 05:20:37;;;;;;;9.13;4.97;;;;;;;11.60;65.23;101458.16;4953812;29;20529;-55
2021/05/19 05:23:05;;;;;;;9.52;4.10;;;;;;;11.61;65.20;101459.78;4954717;28;20050;-55
2021/05/19 05:25:33;;;;;;;8.18;3.83;;;;;;;11.62;65.45;101461.44;4954697;29;20046;-56
2021/05/19 05:28:01;;;;;;;10.82;4.43;;;;;;;11.62;65.42;101462.25;4954149;28;20502;-57
2021/05/19 05:30:28;;;;;;;11.40;4.47;;;;;;;11.62;65.45;101466.91;4954522;28;20050;-56
2021/05/19 05:32:56;;;;;;;8.73;4.10;;;;;;;11.61;65.43;101459.78;4954535;28;20050;-57
2021/05/19 05:35:23;;;;;;;8.45;4.60;;;;;;;11.62;66.15;101464.16;4957890;28;20051;-57
2021/05/19 05:37:51;;;;;;;9.18;4.93;;;;;;;11.63;65.63;101465.81;4957964;28;20047;-57
2021/05/19 05:40:19;;;;;;;9.63;4.68;;;;;;;11.69;66.54;101464.78;4957437;28;20485;-57
2021/05/19 05:42:47;;;;;;;8.07;3.92;;;;;;;11.74;66.00;101464.81;4955775;29;20051;-56
2021/05/19 05:45:15;;;;;;;9.40;4.53;;;;;;;11.76;65.75;101470.84;4949031;29;20063;-55
2021/05/19 05:47:43;;;;;;;11.65;3.95;;;;;;;11.81;66.19;101473.63;4954760;28;20055;-54
2021/05/19 05:50:13;;;;;;;11.85;4.65;;;;;;;11.82;65.89;101466.25;4952757;29;20047;-53
2021/05/19 05:52:41;;;;;;;10.07;4.93;;;;;;;11.78;65.90;101465.94;4954342;28;20035;-54
2021/05/19 05:55:12;;;;;;;7.93;4.15;;;;;;;11.80;65.74;101469.22;4953870;28;20410;-52
2021/05/19 05:57:40;;;;;;;12.30;4.90;;;;;;;11.87;66.35;101474.50;4954130;28;20545;-54
2021/05/19 06:00:13;;;;;;;12.27;4.57;;;;;;;11.81;65.88;101470.88;4952155;29;20070;-51
2021/05/19 06:02:43;;;;;;;12.73;5.57;;;;;;;11.87;66.11;101469.88;4954038;28;20107;-56
2021/05/19 06:05:13;;;;;;;11.75;5.05;;;;;;;11.84;66.44;101475.81;4951974;28;20051;-56
2021/05/19 06:07:41;;;;;;;11.50;5.20;;;;;;;11.79;65.94;101473.06;4954056;28;20051;-57
2021/05/19 06:10:12;;;;;;;10.02;5.03;;;;;;;11.85;66.42;101477.44;4953980;28;20085;-52
2021/05/19 06:12:40;;;;;;;12.88;5.68;;;;;;;11.84;65.84;101475.81;4950290;28;20050;-54
2021/05/19 06:15:08;;;;;;;15.40;6.78;;;;;;;11.82;66.14;101477.97;4936044;29;20056;-55
2021/05/19 06:17:36;;;;;;;9.02;4.50;;;;;;;11.81;66.91;101478.22;4952597;29;20043;-56
2021/05/19 07:33:39;;;;;;;20.38;8.18;;;;;;;12.39;66.15;101503.84;4936177;29;20051;-57
2021/05/19 07:36:06;;;;;;;23.33;8.38;;;;;;;12.39;66.91;101508.47;4956621;28;20051;-58
2021/05/19 07:38:34;;;;;;;16.45;7.72;;;;;;;12.41;66.52;101517.25;4956795;28;20082;-57
2021/05/19 07:41:02;;;;;;;13.77;6.60;;;;;;;12.50;65.96;101510.19;4954943;29;20043;-54
2021/05/19 07:43:30;;;;;;;14.68;6.68;;;;;;;12.57;66.25;101497.13;4955237;29;20039;-56
2021/05/19 07:51:01;;;;;;;12.85;6.03;;;;;;;12.71;66.11;101495.56;4947638;29;20446;-58
2021/05/19 07:53:27;;;;;;;;;;;;;;;12.81;66.20;101494.78;4956662;28;20035;-58
2021/05/19 07:58:35;;;;;;;23.27;9.35;;;;;;;12.78;64.54;101490.66;4956025;28;20043;-54
2021/05/19 08:03:35;;;;;;;23.88;8.88;;;;;;;12.79;65.53;101496.94;4955983;28;20528;-54
2021/05/19 08:06:02;;;;;;;17.23;8.32;;;;;;;12.91;65.17;101497.56;4956133;28;20035;-54
2021/05/19 08:08:28;;;;;;;24.20;7.45;;;;;;;13.09;65.65;101493.53;4955655;28;20046;-53
2021/05/19 08:10:55;;;;;;;;;;;;;;;13.17;65.90;101495.75;4955714;28;20129;-55
2021/05/19 08:13:22;;;;;;;17.08;7.55;;;;;;;13.25;64.43;101493.56;4955871;28;19937;-55
2021/05/19 08:15:49;;;;;;;19.83;7.90;;;;;;;13.14;63.73;101493.53;4970723;28;20043;-55
2021/05/19 08:22:28;;;;;;;14.70;7.70;;;;;;;12.91;64.25;101491.25;4948697;28;20047;-54
2021/05/19 08:25:00;;;;;;;16.35;7.28;;;;;;;12.91;64.54;101499.47;4970205;28;20457;-53
2021/05/19 08:27:32;;;;;;;16.58;7.25;;;;;;;12.84;64.53;101496.16;4954254;29;20414;-54
2021/05/19 08:30:15;;;;;;;28.95;8.43;;;;;;;12.92;65.18;101495.66;4953668;29;20076;-56
2021/05/19 08:32:51;;;;;;;23.92;7.82;;;;;;;12.96;64.94;101496.75;4970538;28;20413;-57
2021/05/19 08:35:35;;;;;;;15.75;6.32;;;;;;;12.98;64.73;101497.31;4954298;29;20055;-57
2021/05/19 08:38:10;;;;;;;20.92;6.53;;;;;;;13.05;64.41;101505.28;4970052;28;20157;-53
2021/05/19 08:40:54;;;;;;;20.15;6.40;;;;;;;13.08;64.88;101502.00;4954235;29;20086;-56
2021/05/19 08:43:30;;;;;;;18.92;6.28;;;;;;;12.98;64.02;101500.03;4953967;28;20058;-52
2021/05/19 08:46:10;;;;;;;17.95;6.60;;;;;;;12.88;64.58;101503.56;4954051;29;20055;-54
2021/05/19 08:48:39;;;;;;;12.35;5.82;;;;;;;12.84;64.77;101494.25;4954116;29;20050;-51
2021/05/19 08:51:07;;;;;;;16.67;6.47;;;;;;;12.85;63.59;101495.09;4938014;28;20047;-52
2021/05/19 08:53:35;;;;;;;13.52;5.43;;;;;;;12.82;63.68;101490.97;4964089;28;20052;-53
2021/05/19 08:56:09;;;;;;;11.23;5.47;;;;;;;12.82;63.57;101485.50;4945960;29;20043;-51
2021/05/19 08:58:38;;;;;;;17.42;5.82;;;;;;;12.91;62.98;101489.34;4954581;28;20043;-55
2021/05/19 09:01:06;;;;;;;18.90;6.15;;;;;;;13.03;63.25;101480.09;4953558;29;20425;-55
2021/05/19 09:03:38;;;;;;;23.92;7.97;;;;;;;13.18;64.52;101486.44;4954762;28;20039;-56
2021/05/19 09:06:08;;;;;;;24.77;8.43;;;;;;;13.32;65.25;101489.50;4954191;28;20058;-55
2021/05/19 09:08:37;;;;;;;20.20;6.88;;;;;;;13.44;64.28;101486.53;4967825;28;20118;-55
2021/05/19 09:11:07;;;;;;;22.38;6.75;;;;;;;13.47;63.92;101479.69;4954508;28;20117;-55
2021/05/19 09:13:45;;;;;;;20.98;7.18;;;;;;;13.59;64.26;101475.63;4954336;28;20027;-55
2021/05/19 09:16:26;;;;;;;24.95;7.85;;;;;;;13.64;65.42;101483.84;4954459;28;20032;-52
2021/05/19 09:18:55;;;;;;;23.92;7.68;;;;;;;13.66;63.48;101483.53;4954624;28;20122;-53
2021/05/19 09:21:39;;;;;;;22.60;7.47;;;;;;;13.82;64.28;101481.66;4953834;28;20051;-54
2021/05/19 09:24:21;;;;;;;27.33;7.95;;;;;;;13.89;63.04;101473.97;4954430;28;20054;-53
2021/05/19 09:27:00;;;;;;;21.05;7.53;;;;;;;14.03;64.63;101477.81;4954546;28;20537;-56
2021/05/19 09:29:33;;;;;;;25.00;8.13;;;;;;;14.05;63.59;101483.03;4954192;28;20102;-55
2021/05/19 09:32:13;;;;;;;14.27;6.32;;;;;;;13.82;62.95;101481.66;4969498;28;20501;-54
2021/05/19 09:34:53;;;;;;;19.33;6.38;;;;;;;13.79;62.58;101476.72;4954248;28;20059;-50
2021/05/19 09:37:24;;;;;;;16.42;5.90;;;;;;;13.81;62.23;101471.78;4954186;28;20502;-56
2021/05/19 09:40:05;;;;;;;20.38;6.93;;;;;;;13.90;62.68;101466.56;4952676;28;20887;-55
2021/05/19 09:42:43;;;;;;;28.40;6.53;;;;;;;14.21;63.97;101472.84;4969505;28;20061;-56
2021/05/19 09:45:28;;;;;;;18.13;6.72;;;;;;;14.22;60.79;101463.53;4954539;28;20066;-57
2021/05/19 09:48:00;;;;;;;17.85;5.97;;;;;;;14.10;59.53;101468.50;4953129;29;20047;-56
2021/05/19 09:50:43;;;;;;;19.60;6.97;;;;;;;14.06;63.35;101480.00;4951890;28;20096;-58
2021/05/19 09:53:18;;;;;;;18.63;7.07;;;;;;;14.01;61.27;101470.97;4952571;29;20047;-55
2021/05/19 09:55:52;;;;;;;15.02;5.22;;;;;;;13.92;61.46;101476.16;4969141;28;20047;-56
2021/05/19 09:58:40;;;;;;;15.27;5.53;;;;;;;13.80;61.57;101472.88;4969013;28;20165;-56
2021/05/19 10:01:18;;;;;;;13.70;5.13;;;;;;;13.71;61.67;101469.03;4954011;28;20058;-57
2021/05/19 10:03:46;;;;;;;13.13;5.40;;;;;;;13.63;61.39;101467.66;4968822;28;20070;-57
2021/05/19 10:06:26;;;;;;;13.07;5.05;;;;;;;13.59;60.13;101469.31;4953741;29;20051;-53
2021/05/19 10:09:03;;;;;;;14.35;5.20;;;;;;;13.60;62.59;101463.56;4953843;28;20105;-55
2021/05/19 10:11:32;;;;;;;17.63;5.50;;;;;;;13.72;65.09;101459.75;4953538;28;20055;-55
2021/05/19 10:14:02;;;;;;;13.65;5.72;;;;;;;13.85;64.83;101454.53;4968663;28;20051;-56
2021/05/19 10:16:31;;;;;;;16.73;5.47;;;;;;;13.97;65.11;101450.69;4953872;28;20127;-53
2021/05/19 10:19:08;;;;;;;18.60;7.30;;;;;;;14.00;62.98;101453.72;4952203;28;20051;-55
2021/05/19 10:21:37;;;;;;;16.10;5.65;;;;;;;13.96;61.25;101447.13;4967817;28;20047;-55
2021/05/19 10:24:10;;;;;;;14.63;5.20;;;;;;;13.93;61.72;101450.44;4968253;28;20502;-51
2021/05/19 10:27:02;;;;;;;19.90;6.70;;;;;;;13.96;62.41;101460.00;4953710;28;20048;-58
2021/05/19 10:29:48;;;;;;;21.88;8.07;;;;;;;13.97;62.15;101459.72;4953726;28;20051;-55
2021/05/19 10:32:22;;;;;;;;;;;;;;;14.01;63.01;101468.22;4952738;29;20070;-55
2021/05/19 10:34:54;;;;;;;14.52;5.60;;;;;;;13.98;63.94;101469.59;4967674;28;19922;-55
2021/05/19 10:37:46;;;;;;;16.83;6.70;;;;;;;13.90;63.16;101478.34;4953798;28;20051;-57
2021/05/19 10:40:17;;;;;;;14.60;6.45;;;;;;;13.81;65.10;101477.28;4953398;28;20047;-56
2021/05/19 10:42:57;;;;;;;15.77;6.35;;;;;;;13.72;64.46;101477.00;4953427;28;20039;-57
2021/05/19 10:45:26;;;;;;;11.03;4.87;;;;;;;13.61;60.27;101476.16;4269937;28;10020701;-59
2021/05/19 10:47:54;;;;;;;27.13;10.55;;;;;;;13.63;61.50;101475.88;4950846;28;20040;-53
2021/05/19 10:50:28;;;;;;;17.50;8.13;;;;;;;13.68;61.24;101481.34;4942705;29;20138;-56
2021/05/19 10:57:17;;;;;;;18.50;8.52;;;;;;;13.70;59.70;101481.09;4954246;28;20059;-58
2021/05/19 10:59:03;;;;;;;15.23;7.70;;;;;;;13.72;60.88;101481.66;4953912;29;20032;-52
2021/05/19 11:01:38;;;;;;;10.32;5.13;;;;;;;13.71;58.24;101494.53;4954961;28;20252;-54
2021/05/19 11:04:22;;;;;;;11.30;5.23;;;;;;;13.67;57.73;101487.94;4954173;28;20053;-55
2021/05/19 11:07:09;;;;;;;11.02;4.85;;;;;;;13.62;57.85;101504.38;4954972;28;20048;-55
2021/05/19 11:09:42;;;;;;;12.20;5.95;;;;;;;13.47;60.20;101502.44;4954667;28;20106;-55
2021/05/19 11:12:24;;;;;;;12.18;5.78;;;;;;;13.08;59.67;101532.91;4953021;29;20039;-54
2021/05/19 11:15:12;;;;;;;11.65;5.07;;;;;;;12.76;61.12;101528.38;4969234;28;20047;-57
2021/05/19 11:20:12;;;;;;;8.57;3.75;;;;;;;12.51;62.63;101548.22;4956330;28;20054;-56
2021/05/19 11:22:39;;;;;;;5.90;3.42;;;;;;;12.40;63.52;101553.88;4956459;29;20498;-54
2021/05/19 11:25:07;;;;;;;11.35;4.10;;;;;;;12.42;64.03;101579.84;4956493;28;20040;-52
2021/05/19 11:27:36;;;;;;;12.52;4.57;;;;;;;12.24;66.10;101578.34;4955494;29;20051;-54
2021/05/19 11:30:08;;;;;;;11.45;4.22;;;;;;;12.26;68.41;101580.81;4956554;28;20502;-53
2021/05/19 11:32:37;;;;;;;9.48;4.20;;;;;;;12.20;68.61;101584.59;4954636;28;20087;-54
2021/05/19 11:35:18;;;;;;;6.63;3.35;;;;;;;12.18;67.81;101578.56;4946161;29;20506;-59
2021/05/19 11:37:59;;;;;;;7.35;3.08;;;;;;;12.05;68.01;101579.78;4956516;28;20126;-56
2021/05/19 11:40:50;;;;;;;6.40;3.25;;;;;;;11.99;68.81;101572.66;4955234;28;20130;-58
2021/05/19 11:43:23;;;;;;;8.93;3.60;;;;;;;11.86;68.98;101576.59;4956287;28;20051;-58
2021/05/19 11:45:58;;;;;;;8.27;3.17;;;;;;;11.85;70.26;101570.28;4955686;28;20501;-57
2021/05/19 11:48:28;;;;;;;4.95;2.85;;;;;;;11.83;70.24;101577.91;4955909;28;20506;-52
2021/05/19 11:51:27;;;;;;;7.53;2.70;;;;;;;11.79;70.85;101565.88;4955917;28;20054;-57
2021/05/19 11:53:59;;;;;;;7.43;3.35;;;;;;;11.83;70.59;101572.44;4955832;29;20502;-55
2021/05/19 11:56:47;;;;;;;7.75;2.90;;;;;;;11.77;71.24;101567.22;4955993;28;20070;-55
2021/05/19 11:59:17;;;;;;;7.63;3.55;;;;;;;11.82;71.19;101575.47;4956037;29;20510;-54
2021/05/19 12:01:56;;;;;;;9.73;3.10;;;;;;;11.90;70.88;101567.63;4955704;28;20059;-55
2021/05/19 12:04:28;;;;;;;8.30;3.45;;;;;;;12.00;70.71;101566.94;4953639;28;20147;-54
2021/05/19 12:07:02;;;;;;;7.88;3.13;;;;;;;12.06;70.92;101565.06;4954529;28;20051;-56
2021/05/19 12:09:32;;;;;;;9.00;3.65;;;;;;;12.10;70.88;101552.56;4956314;28;20046;-55
2021/05/19 12:12:19;;;;;;;7.22;3.30;;;;;;;12.27;71.29;101561.44;4956225;28;20075;-54
2021/05/19 12:14:54;;;;;;;5.85;2.90;;;;;;;12.35;70.27;101558.19;4954879;29;20165;-57
2021/05/19 12:17:44;;;;;;;8.05;3.72;;;;;;;12.45;69.80;101559.38;4954138;29;20090;-55
2021/05/19 12:20:23;;;;;;;4.60;2.80;;;;;;;12.57;69.88;101562.72;4970989;28;20470;-55
2021/05/19 12:23:01;;;;;;;5.22;2.97;;;;;;;12.61;68.28;101552.91;4971615;28;20052;-56
2021/05/19 12:25:31;;;;;;;6.70;3.17;;;;;;;12.65;68.92;101551.31;4946136;29;20039;-59
2021/05/19 12:28:04;;;;;;;9.30;3.05;;;;;;;12.71;69.05;101549.44;4946411;29;20056;-55
2021/05/19 12:30:57;;;;;;;7.75;3.10;;;;;;;12.75;69.79;101548.63;4955965;29;20079;-66
2021/05/19 12:33:44;;;;;;;7.22;3.40;;;;;;;12.76;68.96;101554.91;4970464;28;20059;-58
2021/05/19 12:36:34;;;;;;;7.90;3.20;;;;;;;12.74;67.76;101549.69;4970674;28;20110;-57
2021/05/19 12:39:05;;;;;;;9.13;3.50;;;;;;;12.78;69.06;101550.81;4936928;29;20059;-58
2021/05/19 12:41:47;;;;;;;8.13;3.30;;;;;;;12.88;69.37;101544.59;4955367;29;20043;-57
2021/05/19 12:44:16;;;;;;;10.55;4.03;;;;;;;12.99;68.88;101540.81;4955510;28;20035;-56
2021/05/19 12:47:06;;;;;;;6.50;3.20;;;;;;;13.12;69.09;101534.03;4970300;28;20047;-57
2021/05/19 12:49:34;;;;;;;6.25;3.28;;;;;;;13.22;68.38;101534.06;4955694;28;20507;-52
2021/05/19 12:52:05;;;;;;;5.97;3.33;;;;;;;13.26;66.61;101534.38;4970463;28;20051;-56
2021/05/19 12:54:37;;;;;;;5.35;3.10;;;;;;;13.22;65.06;101539.53;4955538;28;20051;-57
2021/05/19 12:57:10;;;;;;;6.18;3.20;;;;;;;13.16;65.05;101529.69;4955744;28;20051;-57
2021/05/19 12:59:50;;;;;;;6.45;3.47;;;;;;;13.13;66.11;101530.22;4955631;28;20046;-56
2021/05/19 13:02:18;;;;;;;6.47;3.13;;;;;;;13.16;65.86;101540.63;4956998;28;20065;-57
2021/05/19 13:04:51;;;;;;;5.38;2.90;;;;;;;13.21;66.83;101540.63;4956535;28;20079;-57
2021/05/19 13:07:23;;;;;;;6.35;2.95;;;;;;;13.32;66.68;101540.69;4957453;28;20040;-57
2021/05/19 13:10:20;;;;;;;5.60;3.10;;;;;;;13.40;66.95;101540.19;4957825;28;20090;-57
2021/05/19 13:13:12;;;;;;;3.92;2.63;;;;;;;13.38;64.08;101542.38;4958183;28;20047;-56
2021/05/19 13:15:47;;;;;;;6.97;3.38;;;;;;;13.33;65.19;101545.09;4954847;28;20055;-57
2021/05/19 13:18:24;;;;;;;7.07;3.30;;;;;;;13.32;65.37;101540.69;4957241;28;20085;-56
2021/05/19 13:21:05;;;;;;;4.40;2.55;;;;;;;13.31;63.48;101550.00;4956796;28;20093;-57
2021/05/19 13:23:41;;;;;;;5.10;2.67;;;;;;;13.28;62.81;101547.81;4956811;28;20063;-57